Time;durP1;ratioP1;P1;durP2;ratioP2;P2;SDS_P1;SDS_P2;PMS_P1;PMS_P2;Temp;Humidity;BMP_temperature;BMP_pressure;BME280_temperature;BME280_humidity;BME280_pressure;Samples;Min_cycle;Max_cycle;Signal;HPM_P1;HPM_P2
2020/12/08 00:00:11;;;;;;;;;4.25;4.25;;;;;12.40;69.51;100031.97;5050528;28;11510;-65
2020/12/08 00:02:38;;;;;;;;;4.50;4.50;;;;;12.33;70.44;100023.22;5050471;28;11602;-65
2020/12/08 00:05:04;;;;;;;;;5.00;5.00;;;;;12.40;70.04;100010.94;5046414;28;11601;-65
2020/12/08 00:07:31;;;;;;;;;5.00;5.00;;;;;12.40;69.86;100009.19;5050236;28;11578;-64
2020/12/08 00:09:57;;;;;;;;;0.00;0.00;;;;;12.32;70.07;100010.09;5050241;28;11475;-64
2020/12/08 00:12:24;;;;;;;;;6.00;4.25;;;;;12.39;69.62;99996.06;5050225;28;11615;-65
2020/12/08 00:14:50;;;;;;;;;4.25;4.00;;;;;12.33;70.42;99994.34;5050032;28;11572;-65
2020/12/08 00:17:17;;;;;;;;;6.75;5.50;;;;;12.30;70.70;99993.47;5050160;28;11517;-65
2020/12/08 00:19:44;;;;;;;;;5.25;4.25;;;;;12.37;69.70;99989.94;5049810;28;11512;-64
2020/12/08 00:22:10;;;;;;;;;7.75;5.00;;;;;12.42;69.65;99985.56;5050114;28;12291;-65
2020/12/08 00:24:39;;;;;;;;;5.00;5.00;;;;;12.43;69.41;99979.41;5049746;28;11671;-65
2020/12/08 00:27:08;;;;;;;;;5.50;4.25;;;;;12.19;70.42;99969.88;5046345;28;11593;-65
2020/12/08 00:29:36;;;;;;;;;7.50;4.00;;;;;11.91;71.01;99967.28;5046390;28;11585;-65
2020/12/08 00:32:02;;;;;;;;;7.75;5.00;;;;;12.19;70.20;99974.25;5049727;28;11609;-65
2020/12/08 00:34:28;;;;;;;;;4.75;4.25;;;;;12.38;70.06;99966.31;5049757;28;11609;-65
2020/12/08 00:36:55;;;;;;;;;3.25;3.25;;;;;12.02;71.00;99958.53;5049853;28;11602;-65
2020/12/08 00:39:22;;;;;;;;;5.75;5.00;;;;;12.31;69.70;99942.72;5049709;28;11608;-68
2020/12/08 00:41:49;;;;;;;;;5.00;4.75;;;;;12.53;69.19;99950.50;5049732;28;12298;-64
2020/12/08 00:44:15;;;;;;;;;6.00;4.75;;;;;12.38;69.38;99944.44;5049839;28;11603;-65
2020/12/08 00:46:46;;;;;;;;;6.00;5.00;;;;;12.24;70.08;99956.75;5049736;28;11534;-65
2020/12/08 00:49:12;;;;;;;;;3.75;3.75;;;;;12.31;70.04;99953.22;5049627;28;12281;-65
2020/12/08 00:51:38;;;;;;;;;2.50;2.50;;;;;12.05;70.28;99923.53;5049818;28;11575;-65
2020/12/08 00:54:05;;;;;;;;;3.00;2.25;;;;;12.34;69.67;99947.94;5049363;28;11629;-65
2020/12/08 00:56:32;;;;;;;;;5.25;3.00;;;;;12.35;69.63;99945.31;5049688;28;11504;-66
2020/12/08 00:58:58;;;;;;;;;4.00;4.00;;;;;12.32;70.25;99933.94;5049073;28;11507;-65
2020/12/08 01:01:25;;;;;;;;;3.50;2.00;;;;;12.50;68.76;99928.63;5049536;28;12337;-65
2020/12/08 01:03:51;;;;;;;;;5.00;4.75;;;;;12.28;69.82;99934.84;5049493;28;11516;-65
2020/12/08 01:06:18;;;;;;;;;7.00;3.00;;;;;12.35;69.21;99907.69;5049553;28;11496;-65
2020/12/08 01:08:44;;;;;;;;;1.75;1.00;;;;;11.69;69.70;99834.44;5049389;28;11512;-64
2020/12/08 01:11:11;;;;;;;;;4.75;4.75;;;;;12.36;68.79;99909.44;5049404;28;11621;-64
2020/12/08 01:13:37;;;;;;;;;1.00;1.00;;;;;12.28;69.51;99921.72;5049532;28;11590;-65
2020/12/08 01:16:04;;;;;;;;;2.50;2.00;;;;;12.43;68.57;99908.53;5049202;28;11503;-65
2020/12/08 01:18:31;;;;;;;;;2.50;2.50;;;;;12.40;68.54;99905.94;5049662;28;11494;-65
2020/12/08 01:20:57;;;;;;;;;3.00;2.50;;;;;12.47;68.58;99891.88;5049322;28;11578;-65
2020/12/08 01:23:24;;;;;;;;;2.00;2.00;;;;;12.48;68.27;99891.00;5049425;28;11593;-66
2020/12/08 01:25:50;;;;;;;;;3.00;3.00;;;;;12.49;67.99;99884.84;5049240;28;11564;-66
2020/12/08 01:28:17;;;;;;;;;2.50;2.50;;;;;12.33;68.02;99862.19;5049503;28;11593;-66
2020/12/08 01:30:44;;;;;;;;;4.00;2.00;;;;;12.42;68.71;99875.28;5049097;28;11616;-66
2020/12/08 01:33:10;;;;;;;;;3.00;2.00;;;;;12.51;68.79;99872.63;5049524;28;11532;-66
2020/12/08 01:35:37;;;;;;;;;2.00;2.00;;;;;12.32;69.07;99876.19;5049199;28;11504;-66
2020/12/08 01:38:03;;;;;;;;;3.00;3.00;;;;;12.41;68.90;99877.00;5045267;28;11599;-66
2020/12/08 01:40:30;;;;;;;;;3.00;3.00;;;;;12.45;68.13;99867.41;5049336;28;11532;-66
2020/12/08 01:42:56;;;;;;;;;2.00;2.00;;;;;12.09;70.05;99857.06;5049039;28;11574;-66
2020/12/08 01:45:23;;;;;;;;;2.50;2.50;;;;;12.23;69.71;99865.72;5049602;28;11497;-66
2020/12/08 01:47:50;;;;;;;;;3.00;3.00;;;;;12.60;68.19;99848.91;5049037;28;11502;-66
2020/12/08 01:50:18;;;;;;;;;2.75;2.75;;;;;12.64;68.08;99838.38;5049325;28;11655;-66
2020/12/08 01:52:44;;;;;;;;;2.00;2.00;;;;;12.38;69.73;99828.91;5048879;28;11581;-66
2020/12/08 01:55:13;;;;;;;;;3.75;1.25;;;;;12.52;69.43;99829.72;5049393;28;11517;-65
2020/12/08 01:57:40;;;;;;;;;1.00;1.00;;;;;12.26;70.40;99823.72;5048740;28;11513;-66
2020/12/08 02:00:06;;;;;;;;;2.00;2.00;;;;;12.53;69.76;99813.94;5049378;28;11502;-66
2020/12/08 02:02:33;;;;;;;;;2.00;2.00;;;;;12.56;69.58;99828.81;5048856;28;11601;-65
2020/12/08 02:05:01;;;;;;;;;1.00;1.00;;;;;12.65;69.66;99818.22;5049383;28;11623;-64
2020/12/08 02:07:27;;;;;;;;;2.00;2.00;;;;;12.69;70.04;99819.97;5052637;28;11604;-65
2020/12/08 02:09:53;;;;;;;;;2.50;1.25;;;;;12.72;69.51;99819.94;5052372;28;11512;-65
2020/12/08 02:12:20;;;;;;;;;2.00;2.00;;;;;12.67;69.62;99808.59;5052441;28;11500;-64
2020/12/08 02:14:46;;;;;;;;;2.25;2.00;;;;;12.69;68.91;99798.94;5052415;28;11494;-65
2020/12/08 02:17:12;;;;;;;;;2.00;2.00;;;;;12.52;69.93;99806.06;5052472;28;12395;-65
2020/12/08 02:19:40;;;;;;;;;1.00;0.00;;;;;12.62;69.65;99803.34;5052436;28;11572;-65
2020/12/08 02:22:07;;;;;;;;;2.00;2.00;;;;;12.61;69.67;99798.09;5052597;28;11494;-65
2020/12/08 02:24:33;;;;;;;;;1.00;1.00;;;;;12.71;69.69;99797.16;5052118;28;11588;-65
2020/12/08 02:27:00;;;;;;;;;1.00;1.00;;;;;12.70;69.55;99795.44;5052094;28;11492;-65
2020/12/08 02:29:26;;;;;;;;;1.75;1.75;;;;;12.61;69.58;99796.38;5052225;28;11521;-65
2020/12/08 02:31:52;;;;;;;;;1.00;1.00;;;;;12.48;70.20;99793.84;5052045;28;11575;-65
2020/12/08 02:34:18;;;;;;;;;1.50;1.00;;;;;12.59;70.10;99792.00;5052197;28;11501;-64
2020/12/08 02:36:50;;;;;;;;;1.50;0.00;;;;;12.68;70.11;99798.06;5051850;28;11560;-64
2020/12/08 02:39:18;;;;;;;;;2.00;2.00;;;;;12.63;70.46;99783.22;5051896;28;11627;-65
2020/12/08 02:41:44;;;;;;;;;1.50;1.00;;;;;12.64;70.75;99784.97;5051930;28;11503;-65
2020/12/08 02:44:10;;;;;;;;;2.00;1.00;;;;;12.72;70.49;99772.66;5051975;28;11521;-65
2020/12/08 02:46:37;;;;;;;;;1.00;0.25;;;;;12.74;71.18;99765.63;5051959;28;11601;-65
2020/12/08 02:49:03;;;;;;;;;1.00;1.00;;;;;12.73;70.55;99750.75;5047806;28;11527;-64
2020/12/08 02:51:29;;;;;;;;;2.00;1.00;;;;;12.71;70.61;99757.75;5051905;28;11610;-64
2020/12/08 02:53:56;;;;;;;;;2.25;1.00;;;;;12.66;70.85;99735.91;5051415;28;11548;-64
2020/12/08 02:56:25;;;;;;;;;3.50;1.50;;;;;12.77;70.95;99741.94;5051919;28;11494;-64
2020/12/08 02:58:51;;;;;;;;;1.00;1.00;;;;;12.54;71.94;99738.66;5051147;28;11572;-64
2020/12/08 03:01:19;;;;;;;;;2.25;1.75;;;;;12.72;71.38;99735.91;5051757;28;11497;-64
2020/12/08 03:03:45;;;;;;;;;1.00;1.00;;;;;12.80;70.30;99734.06;5051500;28;11508;-64
2020/12/08 03:06:11;;;;;;;;;0.00;0.00;;;;;12.60;71.37;99715.84;5051618;28;11561;-64
2020/12/08 03:08:37;;;;;;;;;1.00;1.00;;;;;12.55;71.09;99727.25;5051630;28;11497;-65
2020/12/08 03:11:04;;;;;;;;;0.50;0.00;;;;;12.17;72.19;99710.91;5051297;28;11582;-65
2020/12/08 03:13:32;;;;;;;;;1.00;0.75;;;;;12.42;71.95;99720.38;5051523;28;11593;-65
2020/12/08 03:16:00;;;;;;;;;0.00;0.00;;;;;12.33;72.09;99704.69;5051174;28;11497;-65
2020/12/08 03:18:26;;;;;;;;;1.00;1.00;;;;;12.51;71.82;99699.31;5051586;28;12372;-65
2020/12/08 03:20:58;;;;;;;;;0.00;0.00;;;;;12.14;72.34;99687.34;5050947;28;11572;-65
2020/12/08 03:23:24;;;;;;;;;0.00;0.00;;;;;12.15;72.55;99694.31;5051398;28;11508;-65
2020/12/08 03:25:50;;;;;;;;;0.00;0.00;;;;;12.38;71.83;99693.28;5051024;28;11591;-65
2020/12/08 03:28:16;;;;;;;;;0.00;0.00;;;;;12.43;72.20;99685.34;5051281;28;11501;-65
2020/12/08 03:30:43;;;;;;;;;0.00;0.00;;;;;12.57;71.51;99691.38;5051052;28;11499;-65
2020/12/08 03:33:10;;;;;;;;;0.00;0.00;;;;;12.32;72.56;99681.94;5051121;28;11513;-65
2020/12/08 03:35:36;;;;;;;;;1.00;0.00;;;;;12.50;72.29;99679.16;5050954;28;11506;-65
2020/12/08 03:38:02;;;;;;;;;1.00;1.00;;;;;12.71;71.74;99681.59;5050991;28;12340;-65
2020/12/08 03:40:28;;;;;;;;;0.00;0.00;;;;;12.55;72.18;99672.09;5050808;28;11489;-65
2020/12/08 03:42:54;;;;;;;;;0.00;0.00;;;;;12.38;72.47;99661.78;5050774;28;11513;-65
2020/12/08 03:45:21;;;;;;;;;0.00;0.00;;;;;12.42;72.76;99662.63;5051102;28;11518;-65
2020/12/08 03:47:48;;;;;;;;;0.00;0.00;;;;;12.35;72.88;99667.03;5050834;28;12213;-65
2020/12/08 03:50:14;;;;;;;;;0.00;0.00;;;;;12.49;72.64;99659.94;5050789;28;11489;-65
2020/12/08 03:52:40;;;;;;;;;0.50;0.00;;;;;12.58;72.02;99664.22;5050519;28;11559;-65
2020/12/08 03:55:06;;;;;;;;;0.00;0.00;;;;;12.72;71.22;99662.34;5050804;28;11581;-65
2020/12/08 03:57:33;;;;;;;;;0.00;0.00;;;;;12.37;73.12;99659.16;5046463;28;11497;-65
2020/12/08 03:59:59;;;;;;;;;0.00;0.00;;;;;12.34;73.08;99661.78;5050452;28;11529;-65
2020/12/08 04:02:25;;;;;;;;;0.00;0.00;;;;;12.48;72.71;99657.31;5050551;28;11670;-65
2020/12/08 04:04:52;;;;;;;;;0.00;0.00;;;;;12.60;72.16;99646.69;5050568;28;12241;-66
2020/12/08 04:07:18;;;;;;;;;0.00;0.00;;;;;12.66;72.23;99651.88;5050531;28;11491;-65
2020/12/08 04:09:44;;;;;;;;;0.00;0.00;;;;;12.57;72.36;99651.97;5050404;28;11507;-65
2020/12/08 04:12:11;;;;;;;;;0.00;0.00;;;;;12.46;72.47;99659.09;5050593;28;11492;-65
2020/12/08 04:14:37;;;;;;;;;0.00;0.00;;;;;12.22;74.47;99659.28;5050309;28;11501;-65
2020/12/08 04:17:03;;;;;;;;;0.00;0.00;;;;;12.46;72.79;99648.59;5046399;28;11599;-65
2020/12/08 04:19:29;;;;;;;;;0.00;0.00;;;;;12.04;74.14;99648.91;5050304;28;12259;-65
2020/12/08 04:21:59;;;;;;;;;1.00;0.00;;;;;12.20;74.41;99646.16;5050311;28;12304;-65
2020/12/08 04:24:26;;;;;;;;;0.00;0.00;;;;;12.28;74.34;99653.97;5050432;28;11590;-65
2020/12/08 04:26:52;;;;;;;;;0.00;0.00;;;;;12.54;73.01;99636.25;5050034;28;11579;-66
2020/12/08 04:29:18;;;;;;;;;0.00;0.00;;;;;12.15;74.08;99631.34;5049664;28;11522;-65
2020/12/08 04:31:45;;;;;;;;;0.00;0.00;;;;;12.13;73.76;99638.38;5050075;28;11503;-65
2020/12/08 04:34:11;;;;;;;;;0.00;0.00;;;;;12.19;73.78;99627.81;5050044;28;11544;-65
2020/12/08 04:36:37;;;;;;;;;0.00;0.00;;;;;12.22;74.08;99627.78;5050061;28;11499;-65
2020/12/08 04:39:04;;;;;;;;;1.00;0.00;;;;;12.34;73.71;99635.53;5045897;28;11517;-65
2020/12/08 04:41:30;;;;;;;;;0.00;0.00;;;;;12.11;74.72;99629.63;5050076;28;11491;-65
2020/12/08 04:43:57;;;;;;;;;0.00;0.00;;;;;12.10;74.40;99622.63;5049672;28;11495;-65
2020/12/08 04:46:24;;;;;;;;;0.00;0.00;;;;;12.10;73.61;99620.00;5049995;28;11614;-65
2020/12/08 04:48:51;;;;;;;;;0.00;0.00;;;;;12.02;74.69;99613.97;5049767;28;11503;-65
2020/12/08 04:51:18;;;;;;;;;0.00;0.00;;;;;12.13;74.33;99622.63;5049881;28;11481;-66
2020/12/08 04:53:47;;;;;;;;;0.00;0.00;;;;;12.19;73.76;99630.44;5049620;28;12322;-65
2020/12/08 04:56:14;;;;;;;;;0.00;0.00;;;;;12.29;73.15;99624.25;5049852;28;11488;-65
2020/12/08 04:58:42;;;;;;;;;0.00;0.00;;;;;12.31;72.93;99625.09;5049225;28;12214;-64
2020/12/08 05:01:09;;;;;;;;;0.00;0.00;;;;;12.38;72.56;99626.75;5050003;28;12222;-65
2020/12/08 05:03:37;;;;;;;;;0.00;0.00;;;;;12.16;74.23;99620.84;5049822;28;12218;-65
2020/12/08 05:06:05;;;;;;;;;0.00;0.00;;;;;12.29;73.91;99624.25;5045588;28;11500;-65
2020/12/08 05:08:31;;;;;;;;;0.00;0.00;;;;;12.59;72.00;99623.94;5049868;28;11498;-65
2020/12/08 05:11:07;;;;;;;;;0.00;0.00;;;;;12.34;72.53;99627.66;5049517;28;11516;-64
2020/12/08 05:13:34;;;;;;;;;0.00;0.00;;;;;12.31;72.80;99606.72;5045763;28;11567;-66
2020/12/08 05:16:01;;;;;;;;;0.00;0.00;;;;;12.44;72.66;99624.06;5049405;28;12288;-65
2020/12/08 05:18:27;;;;;;;;;1.00;0.00;;;;;12.15;73.91;99616.47;5049626;28;12360;-65
2020/12/08 05:20:54;;;;;;;;;0.00;0.00;;;;;12.13;73.92;99617.38;5049133;28;11547;-65
2020/12/08 05:23:22;;;;;;;;;0.00;0.00;;;;;12.45;73.25;99615.34;5049829;28;11515;-66
2020/12/08 05:25:48;;;;;;;;;0.00;0.00;;;;;12.37;73.97;99611.91;5049152;28;12293;-65
2020/12/08 05:28:19;;;;;;;;;0.00;0.00;;;;;12.07;75.08;99599.03;5049702;28;11576;-65
2020/12/08 05:30:47;;;;;;;;;0.00;0.00;;;;;12.08;75.43;99603.41;5049187;28;11493;-65
2020/12/08 05:33:16;;;;;;;;;0.00;0.00;;;;;12.11;75.79;99603.38;5046407;28;11483;-65
2020/12/08 05:35:45;;;;;;;;;0.00;0.00;;;;;12.45;74.35;99599.59;5048689;28;11483;-65
2020/12/08 05:38:14;;;;;;;;;0.00;0.00;;;;;12.45;74.84;99604.84;5048896;28;11505;-65
2020/12/08 05:40:44;;;;;;;;;0.00;0.00;;;;;12.40;74.85;99590.88;5050281;28;11494;-65
2020/12/08 05:43:11;;;;;;;;;0.00;0.00;;;;;12.58;74.71;99590.69;5052951;28;12188;-64
2020/12/08 05:45:38;;;;;;;;;0.00;0.00;;;;;12.43;74.83;99596.09;5053046;28;11487;-65
2020/12/08 05:48:05;;;;;;;;;0.00;0.00;;;;;12.38;74.91;99590.00;5053031;28;11504;-65
2020/12/08 05:50:31;;;;;;;;;0.00;0.00;;;;;12.46;74.75;99590.81;5052882;28;11473;-66
2020/12/08 05:52:59;;;;;;;;;0.00;0.00;;;;;12.57;74.36;99594.22;5052546;28;11526;-65
2020/12/08 05:55:29;;;;;;;;;0.00;0.00;;;;;12.75;73.73;99584.38;5052793;28;12231;-65
2020/12/08 05:58:04;;;;;;;;;0.00;0.00;;;;;12.77;73.32;99586.97;5052654;28;11483;-66
2020/12/08 06:00:31;;;;;;;;;0.00;0.00;;;;;12.62;73.46;99581.91;5052082;28;11478;-66
2020/12/08 06:03:10;;;;;;;;;0.00;0.00;;;;;12.67;73.36;99585.34;5052591;28;11498;-66
2020/12/08 06:05:36;;;;;;;;;0.00;0.00;;;;;12.51;73.46;99578.53;5049174;28;11482;-65
2020/12/08 06:08:13;;;;;;;;;1.00;0.00;;;;;12.72;73.07;99573.03;5052635;28;11504;-65
2020/12/08 06:10:44;;;;;;;;;0.00;0.00;;;;;12.82;72.37;99569.41;5049433;28;11477;-65
2020/12/08 06:13:10;;;;;;;;;0.00;0.00;;;;;12.77;72.16;99571.19;5051954;28;11557;-65
2020/12/08 06:15:41;;;;;;;;;0.00;0.00;;;;;12.82;71.82;99564.13;5052232;28;11473;-66
2020/12/08 06:18:08;;;;;;;;;0.00;0.00;;;;;13.04;71.21;99560.41;5050322;28;11480;-66
2020/12/08 06:20:37;;;;;;;;;0.00;0.00;;;;;12.73;71.53;99565.13;5052198;28;11491;-64
2020/12/08 06:23:03;;;;;;;;;0.00;0.00;;;;;12.36;73.07;99562.91;5049546;28;11491;-64
2020/12/08 06:25:32;;;;;;;;;0.00;0.00;;;;;12.51;72.32;99562.75;5052265;28;11468;-65
2020/12/08 06:28:00;;;;;;;;;0.00;0.00;;;;;12.75;71.81;99562.47;5052128;28;11963;-66
2020/12/08 06:30:27;;;;;;;;;0.00;0.00;;;;;12.51;72.75;99547.00;5051968;28;11470;-66
2020/12/08 06:32:54;;;;;;;;;1.00;0.00;;;;;12.64;72.03;99540.72;5051628;28;11482;-66
2020/12/08 06:35:21;;;;;;;;;0.00;0.00;;;;;12.63;72.04;99546.88;5051584;28;11593;-66
2020/12/08 06:37:50;;;;;;;;;0.00;0.00;;;;;12.72;71.99;99544.16;5051370;28;11474;-65
2020/12/08 06:40:19;;;;;;;;;0.00;0.00;;;;;12.45;72.15;99536.56;5051859;28;11585;-65
2020/12/08 06:42:46;;;;;;;;;0.00;0.00;;;;;12.54;72.39;99531.19;5051094;28;12297;-65
2020/12/08 06:45:20;;;;;;;;;0.00;0.00;;;;;12.80;71.42;99529.16;5051662;28;11608;-65
2020/12/08 06:47:48;;;;;;;;;0.00;0.00;;;;;12.72;71.64;99531.00;5051421;28;12300;-65
2020/12/08 06:50:23;;;;;;;;;0.00;0.00;;;;;12.84;71.25;99525.59;5051552;28;11481;-65
2020/12/08 06:52:54;;;;;;;;;0.00;0.00;;;;;13.00;70.69;99529.81;5048983;28;11494;-66
2020/12/08 06:55:20;;;;;;;;;0.00;0.00;;;;;12.93;70.85;99520.22;5051540;28;11498;-67
2020/12/08 06:57:46;;;;;;;;;0.25;0.00;;;;;12.88;70.21;99522.03;5051469;28;11481;-67
2020/12/08 07:00:13;;;;;;;;;0.00;0.00;;;;;13.04;70.45;99523.59;5051906;28;11496;-68
2020/12/08 07:02:42;;;;;;;;;0.00;0.00;;;;;13.01;70.51;99528.91;5051004;28;11589;-66
2020/12/08 07:05:08;;;;;;;;;0.00;0.00;;;;;12.98;70.66;99539.44;5051382;28;11516;-65
2020/12/08 07:07:36;;;;;;;;;0.00;0.00;;;;;12.76;71.25;99537.94;5051402;28;11745;-66
2020/12/08 07:10:03;;;;;;;;;0.00;0.00;;;;;12.94;70.84;99543.00;5050198;28;11553;-67
2020/12/08 07:12:40;;;;;;;;;0.00;0.00;;;;;12.53;72.16;99547.84;5050986;28;11468;-67
2020/12/08 07:15:06;;;;;;;;;0.00;0.00;;;;;12.85;71.19;99548.34;5050615;28;11567;-67
2020/12/08 07:17:32;;;;;;;;;0.00;0.00;;;;;12.87;71.07;99541.31;5051562;28;12287;-66
2020/12/08 07:20:04;;;;;;;;;0.00;0.00;;;;;13.08;70.01;99535.81;5051087;28;12252;-64
2020/12/08 07:22:43;;;;;;;;;0.00;0.00;;;;;12.88;70.77;99543.03;5051469;28;11506;-65
2020/12/08 07:25:11;;;;;;;;;0.00;0.00;;;;;13.04;70.32;99535.00;5048325;28;11483;-64
2020/12/08 07:27:42;;;;;;;;;1.00;0.00;;;;;13.19;70.13;99533.91;5050854;28;11487;-68
2020/12/08 07:30:09;;;;;;;;;0.00;0.00;;;;;13.29;70.06;99532.91;5051604;28;11513;-67
2020/12/08 07:32:35;;;;;;;;;0.00;0.00;;;;;13.52;69.10;99533.44;5051363;28;11580;-68
2020/12/08 07:35:03;;;;;;;;;0.00;0.00;;;;;13.50;68.88;99530.84;5050900;28;11586;-69
2020/12/08 07:37:36;;;;;;;;;0.00;0.00;;;;;13.49;69.04;99533.50;5051150;28;11985;-68
2020/12/08 07:40:07;;;;;;;;;0.00;0.00;;;;;13.63;68.60;99531.50;5050617;28;11501;-68
2020/12/08 07:42:33;;;;;;;;;0.00;0.00;;;;;13.70;68.67;99539.28;5047199;28;11490;-73
2020/12/08 07:45:00;;;;;;;;;0.00;0.00;;;;;13.63;68.88;99536.75;5047401;28;11504;-65
2020/12/08 07:47:26;;;;;;;;;0.00;0.00;;;;;13.67;68.87;99538.47;5050924;28;12228;-64
2020/12/08 07:49:52;;;;;;;;;0.00;0.00;;;;;13.31;69.31;99539.00;5050709;28;11487;-67
2020/12/08 07:52:19;;;;;;;;;0.00;0.00;;;;;12.84;71.08;99541.38;5050216;28;11466;-66
2020/12/08 07:54:45;;;;;;;;;0.00;0.00;;;;;13.37;70.29;99537.16;5046407;28;11507;-65
2020/12/08 07:57:12;;;;;;;;;0.00;0.00;;;;;13.70;69.05;99533.16;5049154;28;11498;-64
2020/12/08 07:59:39;;;;;;;;;0.00;0.00;;;;;13.70;69.15;99527.91;5048926;28;11573;-64
2020/12/08 08:02:05;;;;;;;;;0.00;0.00;;;;;13.77;68.62;99514.63;5048552;28;11597;-65
2020/12/08 08:04:31;;;;;;;;;0.00;0.00;;;;;13.66;68.99;99510.44;5048516;28;11482;-65
2020/12/08 08:06:57;;;;;;;;;0.00;0.00;;;;;13.76;68.83;99519.91;5049374;28;11506;-66
2020/12/08 08:09:24;;;;;;;;;0.00;0.00;;;;;13.79;68.93;99528.63;5048297;28;11505;-67
2020/12/08 08:11:50;;;;;;;;;0.00;0.00;;;;;13.59;69.35;99519.31;5049318;28;11518;-66
2020/12/08 08:14:17;;;;;;;;;0.00;0.00;;;;;13.81;68.81;99523.34;5048487;28;11594;-66
2020/12/08 08:16:43;;;;;;;;;0.00;0.00;;;;;13.76;69.22;99530.44;5049322;28;11506;-66
2020/12/08 08:19:09;;;;;;;;;0.00;0.00;;;;;13.80;69.15;99532.13;5048245;28;11490;-63
2020/12/08 08:21:36;;;;;;;;;0.00;0.00;;;;;13.82;69.04;99527.69;5048961;28;11503;-63
2020/12/08 08:24:02;;;;;;;;;0.25;0.00;;;;;13.76;69.24;99522.53;5047311;28;11509;-64
2020/12/08 08:26:28;;;;;;;;;0.00;0.00;;;;;13.91;69.15;99532.81;5042082;28;10926;-64
2020/12/08 08:28:55;;;;;;;;;0.00;0.00;;;;;13.68;69.82;99513.88;5048938;28;11578;-63
2020/12/08 08:31:22;;;;;;;;;0.00;0.00;;;;;13.32;71.07;99519.72;5048128;28;11572;-63
2020/12/08 08:33:48;;;;;;;;;0.00;0.00;;;;;13.60;70.65;99515.78;5048827;28;11499;-64
2020/12/08 08:36:14;;;;;;;;;0.00;0.00;;;;;13.90;69.30;99515.28;5048459;28;11497;-65
2020/12/08 08:38:41;;;;;;;;;0.00;0.00;;;;;14.00;69.09;99506.34;5048136;28;11551;-64
2020/12/08 08:41:07;;;;;;;;;0.00;0.00;;;;;13.96;68.85;99525.72;5047322;28;11508;-63
2020/12/08 08:43:33;;;;;;;;;0.00;0.00;;;;;13.93;68.95;99515.25;5045345;28;11510;-63
2020/12/08 08:45:59;;;;;;;;;0.00;0.00;;;;;13.87;69.41;99515.34;5048445;28;12320;-64
2020/12/08 08:48:26;;;;;;;;;0.00;0.00;;;;;14.32;67.81;99514.56;5047744;28;11665;-65
2020/12/08 08:50:53;;;;;;;;;0.00;0.00;;;;;14.27;67.76;99522.56;5046778;28;11491;-65
2020/12/08 08:53:19;;;;;;;;;0.00;0.00;;;;;13.99;69.13;99520.41;5046003;28;11613;-65
2020/12/08 08:55:45;;;;;;;;;0.00;0.00;;;;;14.14;68.42;99525.41;5044112;28;11561;-66
2020/12/08 08:58:11;;;;;;;;;0.00;0.00;;;;;14.04;68.81;99524.69;5046924;28;11493;-64
2020/12/08 09:00:37;;;;;;;;;0.00;0.00;;;;;14.12;68.69;99511.38;5047973;28;12321;-67
2020/12/08 09:03:05;;;;;;;;;0.00;0.00;;;;;14.35;67.93;99519.78;5042827;28;11500;-67
2020/12/08 09:05:33;;;;;;;;;0.00;0.00;;;;;14.34;68.10;99518.06;5042305;28;11537;-67
2020/12/08 09:07:59;;;;;;;;;0.00;0.00;;;;;14.25;68.38;99512.94;5047930;28;11466;-67
2020/12/08 09:10:26;;;;;;;;;0.00;0.00;;;;;14.32;67.97;99489.09;5049208;28;12298;-67
2020/12/08 09:12:52;;;;;;;;;0.50;0.00;;;;;14.52;67.62;99512.44;5049389;28;11554;-70
2020/12/08 09:15:18;;;;;;;;;1.00;0.00;;;;;14.45;68.13;99521.34;5052123;28;11491;-69
2020/12/08 09:17:44;;;;;;;;;0.75;0.00;;;;;14.52;68.22;99513.31;5053729;28;11479;-70
2020/12/08 09:20:12;;;;;;;;;0.00;0.00;;;;;14.35;68.14;99520.63;5053499;28;12219;-68
2020/12/08 09:22:41;;;;;;;;;1.00;0.00;;;;;14.41;68.46;99524.94;5053473;28;11485;-67
2020/12/08 09:25:07;;;;;;;;;0.00;0.00;;;;;14.54;68.19;99515.88;5053345;28;11520;-70
2020/12/08 09:27:33;;;;;;;;;0.00;0.00;;;;;14.64;67.78;99520.09;5049808;28;12275;-80
2020/12/08 09:30:00;;;;;;;;;0.00;0.00;;;;;14.62;67.88;99521.91;5053609;28;12211;-67
2020/12/08 09:32:27;;;;;;;;;0.00;0.00;;;;;14.40;68.16;99523.19;5053172;28;11626;-65
2020/12/08 09:34:53;;;;;;;;;0.00;0.00;;;;;14.60;67.97;99515.75;5053753;28;11500;-65
2020/12/08 09:37:19;;;;;;;;;0.00;0.00;;;;;14.82;68.01;99522.34;5053001;28;11487;-66
2020/12/08 09:39:46;;;;;;;;;0.50;0.00;;;;;14.74;67.83;99519.00;5053299;28;11484;-67
2020/12/08 09:42:13;;;;;;;;;1.50;0.00;;;;;15.32;72.18;99514.25;5053045;28;11493;-67
2020/12/08 09:44:39;;;;;;;;;0.00;0.00;;;;;14.84;67.52;99515.28;5053443;28;11503;-67
2020/12/08 09:47:05;;;;;;;;;0.00;0.00;;;;;14.72;67.95;99515.56;5053066;28;11509;-68
2020/12/08 09:49:31;;;;;;;;;0.00;0.00;;;;;15.58;65.18;99511.91;5053217;28;12320;-67
2020/12/08 09:51:57;;;;;;;;;0.00;0.00;;;;;14.93;67.12;99520.38;5053086;28;11508;-68
2020/12/08 09:54:24;;;;;;;;;0.00;0.00;;;;;14.65;68.25;99525.31;5052950;28;11574;-68
2020/12/08 09:56:51;;;;;;;;;0.00;0.00;;;;;14.68;67.97;99513.88;5052996;28;12270;-68
2020/12/08 09:59:17;;;;;;;;;0.00;0.00;;;;;14.64;68.18;99512.19;5052649;28;11472;-67
2020/12/08 10:01:43;;;;;;;;;0.00;0.00;;;;;14.68;68.20;99505.97;5052936;28;11509;-67
2020/12/08 10:04:09;;;;;;;;;0.00;0.00;;;;;14.68;68.08;99505.97;5050003;28;11608;-66
2020/12/08 10:06:35;;;;;;;;;0.00;0.00;;;;;14.73;68.31;99512.00;5050698;28;11784;-66
2020/12/08 10:09:02;;;;;;;;;1.00;0.00;;;;;14.80;67.83;99508.34;5051570;28;11579;-66
2020/12/08 10:11:28;;;;;;;;;1.00;0.00;;;;;14.78;68.19;99507.50;5050548;28;11489;-65
2020/12/08 20:44:44;;;;;;;;;7.00;5.25;;;;;14.62;68.11;99474.47;5122067;27;13502;-71
2020/12/08 20:47:11;;;;;;;;;5.25;4.75;;;;;14.69;67.96;99478.72;5102031;28;11506;-69
2020/12/08 20:49:37;;;;;;;;;3.00;3.00;;;;;14.77;67.68;99479.44;5104688;28;12329;-71
2020/12/08 20:52:03;;;;;;;;;3.75;3.00;;;;;14.68;67.73;99466.44;5101589;28;11487;-72
2020/12/08 20:54:29;;;;;;;;;3.75;2.50;;;;;14.65;67.99;99475.28;5105752;28;11577;-71
2020/12/08 20:56:56;;;;;;;;;7.00;5.00;;;;;14.66;68.14;99478.78;5104584;28;11465;-69
2020/12/08 20:59:22;;;;;;;;;7.00;5.00;;;;;14.55;68.40;99459.66;5106228;28;12198;-72
2020/12/08 21:01:50;;;;;;;;;4.00;4.00;;;;;14.63;68.07;99468.28;5105720;28;11026;-71
2020/12/08 21:04:17;;;;;;;;;4.00;4.00;;;;;14.65;68.22;99471.75;5105058;28;11491;-70
2020/12/08 21:06:43;;;;;;;;;4.00;4.00;;;;;14.66;68.10;99462.97;5105009;28;11489;-69
2020/12/08 21:09:10;;;;;;;;;6.00;3.00;;;;;14.65;67.88;99462.09;5103801;28;11597;-69
2020/12/08 21:11:36;;;;;;;;;5.00;5.00;;;;;14.65;68.05;99461.22;5103672;28;11561;-69
2020/12/08 21:14:03;;;;;;;;;5.50;5.50;;;;;14.81;68.00;99467.91;5103512;28;11553;-69
2020/12/08 21:16:29;;;;;;;;;2.25;2.25;;;;;14.83;67.49;99463.50;5105131;28;11499;-68
2020/12/08 21:18:57;;;;;;;;;4.00;4.00;;;;;14.89;67.35;99460.72;5103786;28;11572;-69
2020/12/08 21:21:23;;;;;;;;;3.75;3.75;;;;;14.86;67.59;99460.75;5104150;28;11560;-69
2020/12/08 21:23:49;;;;;;;;;5.50;4.00;;;;;14.78;67.46;99457.44;5104136;28;12196;-68
2020/12/08 21:26:19;;;;;;;;;2.50;2.50;;;;;14.81;67.39;99457.34;5103147;28;11512;-68
2020/12/08 21:28:45;;;;;;;;;4.00;3.75;;;;;14.58;68.06;99470.16;5103794;28;11556;-68
2020/12/08 21:31:12;;;;;;;;;2.75;2.75;;;;;14.65;67.57;99466.47;5103787;28;11488;-68
2020/12/08 21:33:38;;;;;;;;;2.50;2.50;;;;;14.55;67.94;99459.66;5103823;28;12293;-68
2020/12/08 21:36:05;;;;;;;;;4.75;4.75;;;;;14.67;67.80;99454.16;5101033;28;11487;-68
2020/12/08 21:38:31;;;;;;;;;4.00;3.00;;;;;14.87;67.19;99457.22;5103856;28;11502;-68
2020/12/08 21:40:58;;;;;;;;;4.75;4.25;;;;;14.74;67.63;99466.31;5101210;28;11490;-66
2020/12/08 21:43:24;;;;;;;;;3.25;3.00;;;;;14.54;67.68;99465.84;5102710;28;11534;-68
2020/12/08 21:45:50;;;;;;;;;7.25;4.00;;;;;14.18;69.02;99480.53;5104858;28;11467;-67
2020/12/08 21:48:17;;;;;;;;;4.75;4.75;;;;;13.83;70.64;99482.06;5103147;28;11518;-67
2020/12/08 21:50:43;;;;;;;;;3.75;3.75;;;;;13.25;73.08;99471.63;5104004;28;11554;-68
2020/12/08 21:53:10;;;;;;;;;9.25;9.25;;;;;13.30;73.53;99489.94;5103902;28;11484;-69
2020/12/08 21:55:36;;;;;;;;;14.50;13.00;;;;;13.22;73.81;99499.72;5093389;28;11593;-68
2020/12/08 21:58:02;;;;;;;;;14.75;14.00;;;;;13.41;72.93;99494.16;5089501;28;11565;-68
2020/12/08 22:00:29;;;;;;;;;12.00;12.00;;;;;13.91;71.40;99495.97;5090374;28;11556;-69
2020/12/08 22:02:55;;;;;;;;;16.00;11.00;;;;;14.16;70.25;99497.28;5089165;28;11634;-70